sensor_id;sensor_type;location;lat;lon;timestamp;pressure;altitude;pressure_sealevel;temperature;humidity
20037;BME280;10179;42.640;23.312;2023-07-31T00:01:04;93384.31;;;24.21;56.11
20037;BME280;10179;42.640;23.312;2023-07-31T00:03:30;93371.50;;;24.18;55.89
20037;BME280;10179;42.640;23.312;2023-07-31T00:05:55;93310.91;;;23.83;55.45
20037;BME280;10179;42.640;23.312;2023-07-31T00:08:20;93351.03;;;24.05;55.53
20037;BME280;10179;42.640;23.312;2023-07-31T00:10:46;93392.19;;;24.35;55.62
20037;BME280;10179;42.640;23.312;2023-07-31T00:13:11;93409.78;;;24.50;55.81
20037;BME280;10179;42.640;23.312;2023-07-31T00:15:37;93402.00;;;24.48;55.64
20037;BME280;10179;42.640;23.312;2023-07-31T00:18:02;93409.13;;;24.44;55.82
20037;BME280;10179;42.640;23.312;2023-07-31T00:20:27;93399.03;;;24.41;55.38
20037;BME280;10179;42.640;23.312;2023-07-31T00:22:53;93400.75;;;24.37;55.23
20037;BME280;10179;42.640;23.312;2023-07-31T00:25:18;93405.16;;;24.33;55.09
20037;BME280;10179;42.640;23.312;2023-07-31T00:27:43;93393.94;;;24.31;55.09
20037;BME280;10179;42.640;23.312;2023-07-31T00:30:11;93390.94;;;24.24;55.24
20037;BME280;10179;42.640;23.312;2023-07-31T00:32:37;93044.00;;;21.94;55.24
20037;BME280;10179;42.640;23.312;2023-07-31T00:35:02;93374.53;;;24.17;55.50
20037;BME280;10179;42.640;23.312;2023-07-31T00:37:28;93349.56;;;24.08;55.62
20037;BME280;10179;42.640;23.312;2023-07-31T00:39:53;93359.38;;;24.21;55.51
20037;BME280;10179;42.640;23.312;2023-07-31T00:42:20;93362.69;;;24.18;55.43
20037;BME280;10179;42.640;23.312;2023-07-31T00:44:45;93372.00;;;24.20;55.24
20037;BME280;10179;42.640;23.312;2023-07-31T00:47:10;93310.75;;;23.79;55.54
20037;BME280;10179;42.640;23.312;2023-07-31T00:49:36;93372.66;;;24.09;55.89
20037;BME280;10179;42.640;23.312;2023-07-31T00:52:02;93375.47;;;24.03;55.91
20037;BME280;10179;42.640;23.312;2023-07-31T00:54:28;93340.88;;;23.76;56.17
20037;BME280;10179;42.640;23.312;2023-07-31T00:56:54;93274.25;;;23.26;56.42
20037;BME280;10179;42.640;23.312;2023-07-31T00:59:20;93369.63;;;23.93;56.73
20037;BME280;10179;42.640;23.312;2023-07-31T01:01:46;93336.31;;;23.68;56.68
20037;BME280;10179;42.640;23.312;2023-07-31T01:04:12;93357.78;;;23.94;56.79
20037;BME280;10179;42.640;23.312;2023-07-31T01:06:55;93355.28;;;23.97;56.53
20037;BME280;10179;42.640;23.312;2023-07-31T01:09:45;93333.81;;;23.80;56.42
20037;BME280;10179;42.640;23.312;2023-07-31T01:12:16;93320.66;;;23.61;56.31
20037;BME280;10179;42.640;23.312;2023-07-31T01:17:26;93317.69;;;23.63;56.86
20037;BME280;10179;42.640;23.312;2023-07-31T01:19:51;93352.25;;;23.81;57.07
20037;BME280;10179;42.640;23.312;2023-07-31T01:23:21;93318.19;;;23.73;57.07
20037;BME280;10179;42.640;23.312;2023-07-31T01:26:03;93292.41;;;23.46;57.21
20037;BME280;10179;42.640;23.312;2023-07-31T01:31:07;93342.63;;;23.72;57.20
20037;BME280;10179;42.640;23.312;2023-07-31T01:33:33;93358.25;;;23.78;57.54
20037;BME280;10179;42.640;23.312;2023-07-31T01:36:00;93341.69;;;23.68;57.57
20037;BME280;10179;42.640;23.312;2023-07-31T01:38:26;93318.94;;;23.56;57.33
20037;BME280;10179;42.640;23.312;2023-07-31T01:40:52;93331.38;;;23.61;57.38
20037;BME280;10179;42.640;23.312;2023-07-31T01:43:18;93349.09;;;23.79;57.48
20037;BME280;10179;42.640;23.312;2023-07-31T01:45:44;93348.31;;;23.79;57.73
20037;BME280;10179;42.640;23.312;2023-07-31T01:48:09;93333.00;;;23.71;57.38
20037;BME280;10179;42.640;23.312;2023-07-31T01:50:34;93302.19;;;23.51;57.59
20037;BME280;10179;42.640;23.312;2023-07-31T01:53:00;93267.16;;;23.30;57.86
20037;BME280;10179;42.640;23.312;2023-07-31T01:55:25;93296.22;;;23.45;57.68
20037;BME280;10179;42.640;23.312;2023-07-31T01:57:51;93298.41;;;23.43;58.15
20037;BME280;10179;42.640;23.312;2023-07-31T02:00:17;93355.13;;;23.76;58.15
20037;BME280;10179;42.640;23.312;2023-07-31T02:02:43;93352.72;;;23.75;58.06
20037;BME280;10179;42.640;23.312;2023-07-31T02:05:08;93353.50;;;23.75;58.18
20037;BME280;10179;42.640;23.312;2023-07-31T02:07:33;93348.94;;;23.76;58.00
20037;BME280;10179;42.640;23.312;2023-07-31T02:09:59;93363.47;;;23.75;58.13
20037;BME280;10179;42.640;23.312;2023-07-31T02:12:24;93368.03;;;23.74;58.47
20037;BME280;10179;42.640;23.312;2023-07-31T02:14:49;93358.88;;;23.75;58.18
20037;BME280;10179;42.640;23.312;2023-07-31T02:17:15;93331.06;;;23.54;58.25
20037;BME280;10179;42.640;23.312;2023-07-31T02:19:40;93367.41;;;23.77;58.04
20037;BME280;10179;42.640;23.312;2023-07-31T02:22:06;93342.91;;;23.62;58.16
20037;BME280;10179;42.640;23.312;2023-07-31T02:24:31;93351.78;;;23.71;58.22
20037;BME280;10179;42.640;23.312;2023-07-31T02:26:57;93294.75;;;23.30;58.04
20037;BME280;10179;42.640;23.312;2023-07-31T02:29:22;93346.75;;;23.78;58.20
20037;BME280;10179;42.640;23.312;2023-07-31T02:31:48;93368.69;;;23.89;57.98
20037;BME280;10179;42.640;23.312;2023-07-31T02:34:13;93358.09;;;23.92;57.91
20037;BME280;10179;42.640;23.312;2023-07-31T02:36:39;93350.84;;;23.84;57.83
20037;BME280;10179;42.640;23.312;2023-07-31T02:39:04;93366.66;;;23.94;57.46
20037;BME280;10179;42.640;23.312;2023-07-31T02:41:30;93258.03;;;23.31;57.62
20037;BME280;10179;42.640;23.312;2023-07-31T02:43:55;93368.53;;;23.85;57.25
20037;BME280;10179;42.640;23.312;2023-07-31T02:46:21;93293.69;;;23.57;57.07
20037;BME280;10179;42.640;23.312;2023-07-31T02:48:49;93371.03;;;24.08;56.81
20037;BME280;10179;42.640;23.312;2023-07-31T02:51:15;93368.84;;;24.10;56.76
20037;BME280;10179;42.640;23.312;2023-07-31T02:53:40;93366.66;;;24.12;56.65
20037;BME280;10179;42.640;23.312;2023-07-31T02:56:05;93348.31;;;23.96;56.67
20037;BME280;10179;42.640;23.312;2023-07-31T02:58:31;93389.69;;;24.13;56.56
20037;BME280;10179;42.640;23.312;2023-07-31T03:00:58;93377.22;;;24.08;56.70
20037;BME280;10179;42.640;23.312;2023-07-31T03:03:23;93372.16;;;24.07;56.55
20037;BME280;10179;42.640;23.312;2023-07-31T03:05:49;93271.59;;;23.43;56.48
20037;BME280;10179;42.640;23.312;2023-07-31T03:08:15;93390.16;;;24.23;56.61
20037;BME280;10179;42.640;23.312;2023-07-31T03:10:40;93399.94;;;24.28;56.41
20037;BME280;10179;42.640;23.312;2023-07-31T03:13:06;93396.63;;;24.31;56.26
20037;BME280;10179;42.640;23.312;2023-07-31T03:15:32;93398.84;;;24.29;56.17
20037;BME280;10179;42.640;23.312;2023-07-31T03:17:57;93395.06;;;24.30;55.73
20037;BME280;10179;42.640;23.312;2023-07-31T03:20:23;93367.75;;;24.02;56.08
20037;BME280;10179;42.640;23.312;2023-07-31T03:22:48;93401.84;;;24.36;55.82
20037;BME280;10179;42.640;23.312;2023-07-31T03:25:13;93406.56;;;24.39;55.70
20037;BME280;10179;42.640;23.312;2023-07-31T03:27:39;93388.75;;;24.26;55.82
20037;BME280;10179;42.640;23.312;2023-07-31T03:30:05;93402.16;;;24.35;55.79
20037;BME280;10179;42.640;23.312;2023-07-31T03:32:31;93405.66;;;24.44;55.72
20037;BME280;10179;42.640;23.312;2023-07-31T03:34:57;93408.50;;;24.47;55.70
20037;BME280;10179;42.640;23.312;2023-07-31T03:37:23;93393.31;;;24.34;55.62
20037;BME280;10179;42.640;23.312;2023-07-31T03:39:48;92953.56;;;21.48;55.26
20037;BME280;10179;42.640;23.312;2023-07-31T03:42:13;93394.44;;;24.33;55.47
20037;BME280;10179;42.640;23.312;2023-07-31T03:44:39;93423.00;;;24.46;55.59
20037;BME280;10179;42.640;23.312;2023-07-31T03:47:05;93424.13;;;24.45;55.62
20037;BME280;10179;42.640;23.312;2023-07-31T03:49:30;93426.19;;;24.48;55.60
20037;BME280;10179;42.640;23.312;2023-07-31T03:51:56;93430.44;;;24.49;55.35
20037;BME280;10179;42.640;23.312;2023-07-31T03:54:21;93376.59;;;24.20;55.30
20037;BME280;10179;42.640;23.312;2023-07-31T03:56:47;93367.75;;;24.02;55.25
20037;BME280;10179;42.640;23.312;2023-07-31T03:59:12;93440.25;;;24.45;55.28
20037;BME280;10179;42.640;23.312;2023-07-31T04:01:37;93397.56;;;24.18;55.31
20037;BME280;10179;42.640;23.312;2023-07-31T04:04:03;93430.72;;;24.39;55.38
20037;BME280;10179;42.640;23.312;2023-07-31T04:06:28;93153.41;;;22.61;55.30
20037;BME280;10179;42.640;23.312;2023-07-31T04:08:54;93442.47;;;24.43;55.32
20037;BME280;10179;42.640;23.312;2023-07-31T04:11:19;93429.50;;;24.45;55.37
20037;BME280;10179;42.640;23.312;2023-07-31T04:13:44;93394.44;;;24.16;55.20
20037;BME280;10179;42.640;23.312;2023-07-31T04:16:10;93426.00;;;24.36;55.21
20037;BME280;10179;42.640;23.312;2023-07-31T04:18:35;93411.78;;;24.27;55.13
20037;BME280;10179;42.640;23.312;2023-07-31T04:21:01;93418.09;;;24.31;55.08
20037;BME280;10179;42.640;23.312;2023-07-31T04:23:27;93441.19;;;24.49;54.69
20037;BME280;10179;42.640;23.312;2023-07-31T04:25:53;93440.56;;;24.52;54.82
20037;BME280;10179;42.640;23.312;2023-07-31T04:28:18;93419.53;;;24.46;54.57
20037;BME280;10179;42.640;23.312;2023-07-31T04:30:43;93436.13;;;24.48;54.43
20037;BME280;10179;42.640;23.312;2023-07-31T04:33:09;93432.94;;;24.37;54.44
20037;BME280;10179;42.640;23.312;2023-07-31T04:35:34;93417.63;;;24.38;54.22
20037;BME280;10179;42.640;23.312;2023-07-31T04:38:00;93422.56;;;24.44;54.01
20037;BME280;10179;42.640;23.312;2023-07-31T04:40:25;93415.28;;;24.36;53.93
20037;BME280;10179;42.640;23.312;2023-07-31T04:42:50;93314.88;;;23.68;53.82
20037;BME280;10179;42.640;23.312;2023-07-31T04:45:16;93427.59;;;24.46;53.59
20037;BME280;10179;42.640;23.312;2023-07-31T04:47:41;93344.22;;;23.90;53.36
20037;BME280;10179;42.640;23.312;2023-07-31T04:50:07;93450.81;;;24.59;53.55
20037;BME280;10179;42.640;23.312;2023-07-31T04:52:32;93418.31;;;24.43;53.20
20037;BME280;10179;42.640;23.312;2023-07-31T04:54:58;93439.91;;;24.56;53.05
20037;BME280;10179;42.640;23.312;2023-07-31T04:57:23;93427.75;;;24.58;53.13
20037;BME280;10179;42.640;23.312;2023-07-31T04:59:48;93353.69;;;24.14;53.38
20037;BME280;10179;42.640;23.312;2023-07-31T05:02:14;93401.22;;;24.57;52.68
20037;BME280;10179;42.640;23.312;2023-07-31T05:04:39;93440.81;;;24.94;52.58
20037;BME280;10179;42.640;23.312;2023-07-31T05:07:05;93443.66;;;25.07;52.42
20037;BME280;10179;42.640;23.312;2023-07-31T05:09:30;93405.72;;;24.99;51.95
20037;BME280;10179;42.640;23.312;2023-07-31T05:11:56;93388.47;;;25.00;51.45
20037;BME280;10179;42.640;23.312;2023-07-31T05:14:21;93441.31;;;25.43;51.16
20037;BME280;10179;42.640;23.312;2023-07-31T05:16:47;93437.16;;;25.55;50.89
20037;BME280;10179;42.640;23.312;2023-07-31T05:19:12;93361.09;;;25.16;50.66
20037;BME280;10179;42.640;23.312;2023-07-31T05:21:37;93429.19;;;25.67;50.32
20037;BME280;10179;42.640;23.312;2023-07-31T05:24:03;93431.69;;;25.72;49.70
20037;BME280;10179;42.640;23.312;2023-07-31T05:26:28;93438.41;;;25.96;49.41
20037;BME280;10179;42.640;23.312;2023-07-31T05:28:54;93428.38;;;26.05;49.25
20037;BME280;10179;42.640;23.312;2023-07-31T05:31:19;93339.56;;;25.75;48.97
20037;BME280;10179;42.640;23.312;2023-07-31T05:33:46;93430.50;;;26.62;47.94
20037;BME280;10179;42.640;23.312;2023-07-31T05:36:11;93444.06;;;26.86;47.37
20037;BME280;10179;42.640;23.312;2023-07-31T05:38:37;93448.16;;;27.05;47.44
20037;BME280;10179;42.640;23.312;2023-07-31T05:41:02;93437.03;;;27.27;46.48
20037;BME280;10179;42.640;23.312;2023-07-31T05:43:27;93441.41;;;27.44;45.69
20037;BME280;10179;42.640;23.312;2023-07-31T05:45:53;93436.94;;;27.60;45.50
20037;BME280;10179;42.640;23.312;2023-07-31T05:48:18;93426.03;;;27.69;45.14
20037;BME280;10179;42.640;23.312;2023-07-31T05:50:44;93431.47;;;27.81;44.60
20037;BME280;10179;42.640;23.312;2023-07-31T05:53:09;93418.19;;;27.76;44.99
20037;BME280;10179;42.640;23.312;2023-07-31T05:55:35;93409.72;;;27.90;43.76
20037;BME280;10179;42.640;23.312;2023-07-31T05:58:01;93446.84;;;28.18;43.90
20037;BME280;10179;42.640;23.312;2023-07-31T06:00:26;93437.69;;;28.35;43.17
20037;BME280;10179;42.640;23.312;2023-07-31T06:02:52;93432.28;;;28.47;42.53
20037;BME280;10179;42.640;23.312;2023-07-31T06:05:18;93445.31;;;28.57;42.17
20037;BME280;10179;42.640;23.312;2023-07-31T06:07:43;93449.22;;;28.72;41.39
20037;BME280;10179;42.640;23.312;2023-07-31T06:10:09;93448.84;;;28.73;41.32
20037;BME280;10179;42.640;23.312;2023-07-31T06:12:35;93449.06;;;28.81;41.19
20037;BME280;10179;42.640;23.312;2023-07-31T06:15:02;93452.41;;;28.90;41.54
20037;BME280;10179;42.640;23.312;2023-07-31T06:17:28;93452.72;;;29.00;40.27
20037;BME280;10179;42.640;23.312;2023-07-31T06:19:54;93359.56;;;28.42;39.55
20037;BME280;10179;42.640;23.312;2023-07-31T06:22:19;93454.16;;;28.98;39.68
20037;BME280;10179;42.640;23.312;2023-07-31T06:24:45;93451.53;;;28.86;38.91
20037;BME280;10179;42.640;23.312;2023-07-31T06:27:11;93455.94;;;28.78;39.64
20037;BME280;10179;42.640;23.312;2023-07-31T06:29:36;93452.91;;;28.80;39.72
20037;BME280;10179;42.640;23.312;2023-07-31T06:32:02;93157.22;;;26.38;39.88
20037;BME280;10179;42.640;23.312;2023-07-31T06:34:28;93424.50;;;28.86;39.48
20037;BME280;10179;42.640;23.312;2023-07-31T06:36:54;93445.84;;;29.03;38.64
20037;BME280;10179;42.640;23.312;2023-07-31T06:39:19;93443.16;;;29.03;38.22
20037;BME280;10179;42.640;23.312;2023-07-31T06:41:44;93449.84;;;29.09;38.26
20037;BME280;10179;42.640;23.312;2023-07-31T06:44:10;93297.50;;;28.17;37.91
20037;BME280;10179;42.640;23.312;2023-07-31T06:46:36;93448.47;;;29.15;37.75
20037;BME280;10179;42.640;23.312;2023-07-31T06:49:01;93410.13;;;28.97;38.16
20037;BME280;10179;42.640;23.312;2023-07-31T06:51:27;93456.88;;;29.26;37.52
20037;BME280;10179;42.640;23.312;2023-07-31T06:53:52;93451.44;;;29.10;37.72
20037;BME280;10179;42.640;23.312;2023-07-31T06:56:17;93456.69;;;28.91;37.95
20037;BME280;10179;42.640;23.312;2023-07-31T06:58:43;93465.97;;;28.77;38.94
20037;BME280;10179;42.640;23.312;2023-07-31T07:01:08;93426.34;;;28.41;39.00
20037;BME280;10179;42.640;23.312;2023-07-31T07:03:34;93462.44;;;28.61;39.43
20037;BME280;10179;42.640;23.312;2023-07-31T07:05:59;93458.59;;;28.62;39.33
20037;BME280;10179;42.640;23.312;2023-07-31T07:08:25;93423.03;;;28.36;39.46
20037;BME280;10179;42.640;23.312;2023-07-31T07:10:50;93454.06;;;28.66;39.62
20037;BME280;10179;42.640;23.312;2023-07-31T07:13:16;93456.44;;;28.68;39.07
20037;BME280;10179;42.640;23.312;2023-07-31T07:15:47;93456.03;;;28.82;38.86
20037;BME280;10179;42.640;23.312;2023-07-31T07:18:12;93457.81;;;28.90;38.40
20037;BME280;10179;42.640;23.312;2023-07-31T07:20:39;93441.00;;;28.68;37.71
20037;BME280;10179;42.640;23.312;2023-07-31T07:23:04;93410.34;;;28.36;37.71
20037;BME280;10179;42.640;23.312;2023-07-31T07:25:30;93451.22;;;28.47;38.28
20037;BME280;10179;42.640;23.312;2023-07-31T07:27:55;93399.91;;;28.10;38.78
20037;BME280;10179;42.640;23.312;2023-07-31T07:30:20;93457.59;;;28.54;38.34
20037;BME280;10179;42.640;23.312;2023-07-31T07:32:46;93458.59;;;28.62;38.08
20037;BME280;10179;42.640;23.312;2023-07-31T07:35:11;93473.53;;;28.72;37.74
20037;BME280;10179;42.640;23.312;2023-07-31T07:37:36;93457.31;;;28.72;38.04
20037;BME280;10179;42.640;23.312;2023-07-31T07:40:02;93400.97;;;28.46;37.90
20037;BME280;10179;42.640;23.312;2023-07-31T07:42:28;93458.00;;;28.97;37.82
20037;BME280;10179;42.640;23.312;2023-07-31T07:44:53;93462.28;;;29.10;37.85
20037;BME280;10179;42.640;23.312;2023-07-31T07:47:18;93465.78;;;29.27;37.58
20037;BME280;10179;42.640;23.312;2023-07-31T07:49:44;93449.53;;;29.11;36.93
20037;BME280;10179;42.640;23.312;2023-07-31T07:52:09;93445.31;;;29.13;36.93
20037;BME280;10179;42.640;23.312;2023-07-31T07:54:35;93456.34;;;29.20;37.40
20037;BME280;10179;42.640;23.312;2023-07-31T07:57:00;93407.06;;;28.99;36.66
20037;BME280;10179;42.640;23.312;2023-07-31T07:59:25;93465.72;;;29.55;36.42
20037;BME280;10179;42.640;23.312;2023-07-31T08:01:51;93479.19;;;29.83;35.98
20037;BME280;10179;42.640;23.312;2023-07-31T08:04:16;93231.19;;;28.48;36.08
20037;BME280;10179;42.640;23.312;2023-07-31T08:06:42;93352.13;;;29.27;35.73
20037;BME280;10179;42.640;23.312;2023-07-31T08:09:07;93421.16;;;30.00;35.24
20037;BME280;10179;42.640;23.312;2023-07-31T08:11:34;93467.03;;;30.59;35.20
20037;BME280;10179;42.640;23.312;2023-07-31T08:13:59;93473.28;;;30.99;34.28
20037;BME280;10179;42.640;23.312;2023-07-31T08:16:25;93424.28;;;31.11;32.94
20037;BME280;10179;42.640;23.312;2023-07-31T08:18:50;93453.91;;;31.62;32.46
20037;BME280;10179;42.640;23.312;2023-07-31T08:21:16;93396.81;;;31.58;32.62
20037;BME280;10179;42.640;23.312;2023-07-31T08:23:41;93439.34;;;31.97;31.47
20037;BME280;10179;42.640;23.312;2023-07-31T08:26:06;93392.56;;;31.84;31.17
20037;BME280;10179;42.640;23.312;2023-07-31T08:28:32;93470.81;;;32.47;30.94
20037;BME280;10179;42.640;23.312;2023-07-31T08:30:57;93472.94;;;32.61;30.66
20037;BME280;10179;42.640;23.312;2023-07-31T08:33:23;93471.97;;;32.76;30.34
20037;BME280;10179;42.640;23.312;2023-07-31T08:35:48;93474.13;;;32.64;31.25
20037;BME280;10179;42.640;23.312;2023-07-31T08:38:14;93435.00;;;32.19;30.97
20037;BME280;10179;42.640;23.312;2023-07-31T08:40:39;93480.63;;;32.55;30.80
20037;BME280;10179;42.640;23.312;2023-07-31T08:43:05;93468.88;;;32.25;30.69
20037;BME280;10179;42.640;23.312;2023-07-31T08:45:32;93468.72;;;31.88;31.53
20037;BME280;10179;42.640;23.312;2023-07-31T08:47:58;93454.19;;;31.80;31.74
20037;BME280;10179;42.640;23.312;2023-07-31T08:50:24;93428.16;;;31.52;31.50
20037;BME280;10179;42.640;23.312;2023-07-31T08:52:51;93481.16;;;31.89;32.14
20037;BME280;10179;42.640;23.312;2023-07-31T08:55:17;93418.34;;;31.25;32.03
20037;BME280;10179;42.640;23.312;2023-07-31T08:57:48;93457.03;;;31.22;32.42
20037;BME280;10179;42.640;23.312;2023-07-31T09:00:15;93430.66;;;30.80;32.71
20037;BME280;10179;42.640;23.312;2023-07-31T09:02:45;93479.13;;;31.01;32.61
20037;BME280;10179;42.640;23.312;2023-07-31T09:05:12;93483.78;;;31.00;32.76
20037;BME280;10179;42.640;23.312;2023-07-31T09:07:38;93460.72;;;30.90;32.31
20037;BME280;10179;42.640;23.312;2023-07-31T09:10:04;93414.16;;;30.69;32.07
20037;BME280;10179;42.640;23.312;2023-07-31T09:12:30;93450.06;;;31.21;32.22
20037;BME280;10179;42.640;23.312;2023-07-31T09:14:59;93462.91;;;31.43;31.55
20037;BME280;10179;42.640;23.312;2023-07-31T09:17:33;93465.63;;;31.66;31.28
20037;BME280;10179;42.640;23.312;2023-07-31T09:20:13;93472.19;;;31.65;31.43
20037;BME280;10179;42.640;23.312;2023-07-31T09:22:39;93432.59;;;31.41;31.84
20037;BME280;10179;42.640;23.312;2023-07-31T09:30:19;93455.38;;;32.02;31.23
20037;BME280;10179;42.640;23.312;2023-07-31T09:32:46;93463.28;;;32.14;30.83
20037;BME280;10179;42.640;23.312;2023-07-31T09:35:14;93429.06;;;32.10;30.41
20037;BME280;10179;42.640;23.312;2023-07-31T09:37:43;93444.84;;;32.27;30.55
20037;BME280;10179;42.640;23.312;2023-07-31T09:40:09;93441.84;;;32.36;31.29
20037;BME280;10179;42.640;23.312;2023-07-31T09:42:49;93461.84;;;32.47;30.29
20037;BME280;10179;42.640;23.312;2023-07-31T09:45:14;93438.22;;;32.51;30.74
20037;BME280;10179;42.640;23.312;2023-07-31T09:47:46;93401.56;;;32.41;30.33
20037;BME280;10179;42.640;23.312;2023-07-31T09:50:14;93414.63;;;32.59;30.43
20037;BME280;10179;42.640;23.312;2023-07-31T09:52:40;93426.25;;;32.89;29.88
20037;BME280;10179;42.640;23.312;2023-07-31T09:55:05;93379.81;;;32.75;29.86
20037;BME280;10179;42.640;23.312;2023-07-31T09:57:31;93389.75;;;32.94;29.22
20037;BME280;10179;42.640;23.312;2023-07-31T09:59:58;93404.88;;;32.91;29.68
20037;BME280;10179;42.640;23.312;2023-07-31T10:02:24;93429.53;;;33.02;29.55
20037;BME280;10179;42.640;23.312;2023-07-31T10:04:51;93427.25;;;33.08;28.87
20037;BME280;10179;42.640;23.312;2023-07-31T10:07:18;93403.94;;;33.07;29.10
20037;BME280;10179;42.640;23.312;2023-07-31T10:09:45;93428.28;;;33.33;29.19
20037;BME280;10179;42.640;23.312;2023-07-31T10:12:14;93379.97;;;33.23;29.03
20037;BME280;10179;42.640;23.312;2023-07-31T10:14:42;93394.91;;;33.40;28.31
20037;BME280;10179;42.640;23.312;2023-07-31T10:17:08;93436.69;;;33.55;28.38
20037;BME280;10179;42.640;23.312;2023-07-31T10:19:34;93426.31;;;33.30;27.51
20037;BME280;10179;42.640;23.312;2023-07-31T10:22:00;93433.16;;;33.51;28.00
20037;BME280;10179;42.640;23.312;2023-07-31T10:24:27;93413.81;;;33.63;27.78
20037;BME280;10179;42.640;23.312;2023-07-31T10:26:57;93411.88;;;33.63;27.98
20037;BME280;10179;42.640;23.312;2023-07-31T10:29:25;93130.44;;;31.71;27.81
20037;BME280;10179;42.640;23.312;2023-07-31T10:31:52;93412.03;;;33.40;27.62
20037;BME280;10179;42.640;23.312;2023-07-31T10:34:17;93423.53;;;33.23;27.21
20037;BME280;10179;42.640;23.312;2023-07-31T10:36:43;93376.34;;;32.78;27.96
20037;BME280;10179;42.640;23.312;2023-07-31T10:39:44;93410.47;;;33.02;27.75
20037;BME280;10179;42.640;23.312;2023-07-31T10:42:27;93387.50;;;32.66;27.82
20037;BME280;10179;42.640;23.312;2023-07-31T10:44:56;93434.72;;;32.84;27.55
20037;BME280;10179;42.640;23.312;2023-07-31T10:47:21;93376.84;;;32.53;28.01
20037;BME280;10179;42.640;23.312;2023-07-31T10:49:46;93355.78;;;31.90;28.61
20037;BME280;10179;42.640;23.312;2023-07-31T10:52:13;93414.13;;;31.96;28.89
20037;BME280;10179;42.640;23.312;2023-07-31T10:54:39;93403.44;;;32.11;28.81
20037;BME280;10179;42.640;23.312;2023-07-31T10:57:19;93404.97;;;32.08;28.73
20037;BME280;10179;42.640;23.312;2023-07-31T10:59:45;93405.06;;;31.89;28.81
20037;BME280;10179;42.640;23.312;2023-07-31T11:02:23;93405.84;;;31.89;28.57
20037;BME280;10179;42.640;23.312;2023-07-31T11:05:06;93391.84;;;32.14;28.13
20037;BME280;10179;42.640;23.312;2023-07-31T11:07:48;93375.28;;;32.52;27.83
20037;BME280;10179;42.640;23.312;2023-07-31T11:10:17;93387.50;;;32.99;26.22
20037;BME280;10179;42.640;23.312;2023-07-31T11:12:45;93303.84;;;32.55;26.86
20037;BME280;10179;42.640;23.312;2023-07-31T11:15:10;93382.41;;;33.35;26.95
20037;BME280;10179;42.640;23.312;2023-07-31T11:17:40;93330.44;;;33.51;26.09
20037;BME280;10179;42.640;23.312;2023-07-31T11:20:06;93392.56;;;34.45;25.21
20037;BME280;10179;42.640;23.312;2023-07-31T11:22:34;93392.41;;;34.89;24.61
20037;BME280;10179;42.640;23.312;2023-07-31T11:25:01;93368.69;;;35.15;23.60
20037;BME280;10179;42.640;23.312;2023-07-31T11:27:30;93388.28;;;35.56;23.51
20037;BME280;10179;42.640;23.312;2023-07-31T11:30:02;93360.19;;;35.59;23.00
20037;BME280;10179;42.640;23.312;2023-07-31T11:32:28;93325.00;;;35.29;23.09
20037;BME280;10179;42.640;23.312;2023-07-31T11:34:54;93353.88;;;35.48;23.05
20037;BME280;10179;42.640;23.312;2023-07-31T11:37:20;93367.16;;;35.32;23.64
20037;BME280;10179;42.640;23.312;2023-07-31T11:40:01;93338.78;;;34.46;23.72
20037;BME280;10179;42.640;23.312;2023-07-31T11:42:26;93380.69;;;34.09;24.75
20037;BME280;10179;42.640;23.312;2023-07-31T11:44:51;93326.53;;;33.08;25.47
20037;BME280;10179;42.640;23.312;2023-07-31T11:47:17;93378.25;;;33.08;26.16
20037;BME280;10179;42.640;23.312;2023-07-31T11:49:43;93351.19;;;32.51;27.98
20037;BME280;10179;42.640;23.312;2023-07-31T11:52:09;93257.47;;;31.54;28.40
20037;BME280;10179;42.640;23.312;2023-07-31T11:54:36;93375.25;;;31.92;28.34
20037;BME280;10179;42.640;23.312;2023-07-31T11:57:02;93365.38;;;31.57;29.12
20037;BME280;10179;42.640;23.312;2023-07-31T11:59:28;93343.28;;;31.13;29.28
20037;BME280;10179;42.640;23.312;2023-07-31T12:01:54;93364.53;;;31.07;29.51
20037;BME280;10179;42.640;23.312;2023-07-31T12:04:20;93380.81;;;31.07;29.40
20037;BME280;10179;42.640;23.312;2023-07-31T12:06:47;93376.03;;;31.01;30.04
20037;BME280;10179;42.640;23.312;2023-07-31T12:09:14;93365.13;;;30.97;29.75
20037;BME280;10179;42.640;23.312;2023-07-31T12:11:44;93345.75;;;30.76;30.13
20037;BME280;10179;42.640;23.312;2023-07-31T12:14:41;93354.97;;;30.94;30.42
20037;BME280;10179;42.640;23.312;2023-07-31T12:17:06;93361.00;;;30.84;30.42
20037;BME280;10179;42.640;23.312;2023-07-31T12:19:32;93357.84;;;30.82;30.50
20037;BME280;10179;42.640;23.312;2023-07-31T12:22:01;93292.09;;;30.27;29.91
20037;BME280;10179;42.640;23.312;2023-07-31T12:24:27;93355.69;;;30.91;29.68
20037;BME280;10179;42.640;23.312;2023-07-31T12:26:52;93355.47;;;31.00;30.62
20037;BME280;10179;42.640;23.312;2023-07-31T12:29:20;93355.34;;;30.93;31.30
20037;BME280;10179;42.640;23.312;2023-07-31T12:31:45;93339.28;;;30.84;31.04
20037;BME280;10179;42.640;23.312;2023-07-31T12:34:17;93348.97;;;31.04;30.15
20037;BME280;10179;42.640;23.312;2023-07-31T12:36:44;93352.88;;;31.07;30.94
20037;BME280;10179;42.640;23.312;2023-07-31T12:39:09;93350.19;;;31.07;31.09
20037;BME280;10179;42.640;23.312;2023-07-31T12:41:35;93357.66;;;31.13;30.43
20037;BME280;10179;42.640;23.312;2023-07-31T12:44:01;93359.09;;;31.07;30.40
20037;BME280;10179;42.640;23.312;2023-07-31T12:46:26;93344.19;;;30.98;30.64
20037;BME280;10179;42.640;23.312;2023-07-31T12:48:51;93343.81;;;30.99;30.28
20037;BME280;10179;42.640;23.312;2023-07-31T12:51:17;93327.84;;;30.94;29.96
20037;BME280;10179;42.640;23.312;2023-07-31T12:53:42;93347.53;;;31.10;29.43
20037;BME280;10179;42.640;23.312;2023-07-31T12:56:08;93311.88;;;30.89;29.33
20037;BME280;10179;42.640;23.312;2023-07-31T12:58:33;93345.22;;;31.12;29.76